createdAt,value
2023-01-27T00:00:51.634Z,83.31
2023-01-27T00:03:19.090Z,83.60
2023-01-27T00:05:46.577Z,83.78
2023-01-27T00:08:14.724Z,83.93
2023-01-27T00:10:41.833Z,83.94
2023-01-27T00:13:27.530Z,84.00
2023-01-27T00:15:55.459Z,83.86
2023-01-27T00:18:23.568Z,83.69
2023-01-27T00:21:09.618Z,83.69
2023-01-27T00:23:55.146Z,83.83
2023-01-27T00:26:22.234Z,83.26
2023-01-27T00:28:49.338Z,83.60
2023-01-27T00:31:36.465Z,84.06
2023-01-27T00:34:10.767Z,83.92
2023-01-27T00:36:39.304Z,83.90
2023-01-27T00:39:07.270Z,84.56
2023-01-27T00:41:34.986Z,84.37
2023-01-27T00:44:02.484Z,84.20
2023-01-27T00:46:29.797Z,84.25
2023-01-27T00:48:57.033Z,84.19
2023-01-27T00:51:24.471Z,84.46
2023-01-27T00:53:51.578Z,84.37
2023-01-27T00:56:19.232Z,84.14
2023-01-27T00:58:46.522Z,84.50
2023-01-27T01:01:15.871Z,84.09
2023-01-27T01:03:43.726Z,84.19
2023-01-27T01:06:13.213Z,83.97
2023-01-27T01:08:40.756Z,83.90
2023-01-27T01:11:11.478Z,84.24
2023-01-27T01:13:38.828Z,84.58
2023-01-27T01:16:07.706Z,84.77
2023-01-27T01:18:35.155Z,84.30
2023-01-27T01:21:02.762Z,84.32
2023-01-27T01:23:29.848Z,83.93
2023-01-27T01:25:57.430Z,84.17
2023-01-27T01:28:25.085Z,84.04
2023-01-27T01:30:53.072Z,84.12
2023-01-27T01:33:20.531Z,83.89
2023-01-27T01:35:47.598Z,84.00
2023-01-27T01:38:15.030Z,83.62
2023-01-27T01:40:42.763Z,83.73
2023-01-27T01:43:15.853Z,83.99
2023-01-27T01:45:51.519Z,84.41
2023-01-27T01:48:23.639Z,84.51
2023-01-27T01:50:55.267Z,84.60
2023-01-27T01:53:29.364Z,84.71
2023-01-27T01:56:05.299Z,85.06
2023-01-27T01:58:32.407Z,85.51
2023-01-27T02:00:59.637Z,85.38
2023-01-27T02:03:28.784Z,85.02
2023-01-27T02:05:56.194Z,85.08
2023-01-27T02:08:29.948Z,84.59
2023-01-27T02:10:57.722Z,84.49
2023-01-27T02:13:24.794Z,84.92
2023-01-27T02:15:53.360Z,85.02
2023-01-27T02:18:20.802Z,85.32
2023-01-27T02:20:50.491Z,85.24
2023-01-27T02:23:45.208Z,85.25
2023-01-27T02:26:32.193Z,85.54
2023-01-27T02:29:03.079Z,85.76
2023-01-27T02:31:30.416Z,85.90
2023-01-27T02:34:14.516Z,85.76
2023-01-27T02:36:53.514Z,85.94
2023-01-27T02:39:22.771Z,86.66
2023-01-27T02:41:52.223Z,85.91
2023-01-27T02:44:19.338Z,85.97
2023-01-27T02:46:46.415Z,86.36
2023-01-27T02:49:14.575Z,86.49
2023-01-27T02:51:41.926Z,86.50
2023-01-27T02:54:09.029Z,86.15
2023-01-27T02:56:36.148Z,85.62
2023-01-27T02:59:03.172Z,85.94
2023-01-27T03:01:32.894Z,85.64
2023-01-27T03:04:00.142Z,85.38
2023-01-27T03:06:27.204Z,85.23
2023-01-27T03:08:54.240Z,85.45
2023-01-27T03:11:39.661Z,85.48
2023-01-27T03:14:07.802Z,85.17
2023-01-27T03:16:53.535Z,85.15
2023-01-27T03:19:21.150Z,85.66
2023-01-27T03:21:51.070Z,85.62
2023-01-27T03:24:18.583Z,85.70
2023-01-27T03:26:45.748Z,85.60
2023-01-27T03:29:31.749Z,85.98
2023-01-27T03:31:58.916Z,86.25
2023-01-27T03:34:26.010Z,86.01
2023-01-27T03:37:11.524Z,86.35
2023-01-27T03:39:57.708Z,86.32
2023-01-27T03:42:43.033Z,86.63
2023-01-27T03:45:29.027Z,86.01
2023-01-27T03:47:56.061Z,85.88
2023-01-27T03:50:37.503Z,86.02
2023-01-27T03:53:05.598Z,85.69
2023-01-27T03:55:35.777Z,85.67
2023-01-27T03:58:19.138Z,85.67
2023-01-27T04:00:49.218Z,85.73
2023-01-27T04:03:34.706Z,85.19
2023-01-27T04:06:24.977Z,85.32
2023-01-27T04:08:52.057Z,85.06
2023-01-27T04:11:37.507Z,85.07
2023-01-27T04:14:05.818Z,85.00
2023-01-27T04:16:34.425Z,85.43
2023-01-27T04:19:01.596Z,85.33
2023-01-27T04:21:28.914Z,85.45
2023-01-27T04:23:56.393Z,85.32
2023-01-27T04:26:23.791Z,85.95
2023-01-27T04:28:51.140Z,86.20
2023-01-27T04:31:18.566Z,86.13
2023-01-27T04:33:45.699Z,85.82
2023-01-27T04:36:12.958Z,85.54
2023-01-27T04:38:40.003Z,85.88
2023-01-27T04:41:07.153Z,85.32
2023-01-27T04:43:35.487Z,85.38
2023-01-27T04:46:02.762Z,86.09
2023-01-27T04:48:29.920Z,85.44
2023-01-27T04:50:57.046Z,85.99
2023-01-27T04:53:24.118Z,85.64
2023-01-27T04:56:02.333Z,85.41
2023-01-27T04:58:29.432Z,84.95
2023-01-27T05:00:56.532Z,85.40
2023-01-27T05:03:23.852Z,85.28
2023-01-27T05:05:51.621Z,85.41
2023-01-27T05:08:18.686Z,85.63
2023-01-27T05:10:45.734Z,85.86
2023-01-27T05:13:12.810Z,85.88
2023-01-27T05:15:39.916Z,85.67
2023-01-27T05:18:07.005Z,85.92
2023-01-27T05:20:34.039Z,85.73
2023-01-27T05:23:19.846Z,85.71
2023-01-27T05:25:46.993Z,85.68
2023-01-27T05:28:14.055Z,85.40
2023-01-27T05:30:41.152Z,85.67
2023-01-27T05:33:08.423Z,85.36
2023-01-27T05:35:35.591Z,85.45
2023-01-27T05:38:02.862Z,85.19
2023-01-27T05:40:30.531Z,85.21
2023-01-27T05:42:57.573Z,84.90
2023-01-27T05:45:24.647Z,84.45
2023-01-27T05:47:51.837Z,84.92
2023-01-27T05:50:19.135Z,85.07
2023-01-27T05:52:46.377Z,84.88
2023-01-27T05:55:14.050Z,85.41
2023-01-27T05:57:41.281Z,85.33
2023-01-27T06:00:08.972Z,85.32
2023-01-27T06:02:36.073Z,85.40
2023-01-27T06:05:03.285Z,84.88
2023-01-27T06:07:30.412Z,85.14
2023-01-27T06:09:57.471Z,85.46
2023-01-27T06:12:24.500Z,85.55
2023-01-27T06:14:51.576Z,85.54
2023-01-27T06:17:18.657Z,85.46
2023-01-27T06:19:45.689Z,85.41
2023-01-27T06:22:12.726Z,85.54
2023-01-27T06:24:39.774Z,85.48
2023-01-27T06:27:06.833Z,85.41
2023-01-27T06:29:33.979Z,85.13
2023-01-27T06:32:01.212Z,85.04
2023-01-27T06:34:28.314Z,85.15
2023-01-27T06:36:55.363Z,85.10
2023-01-27T06:39:22.422Z,84.64
2023-01-27T06:41:49.937Z,84.67
2023-01-27T06:44:17.209Z,84.54
2023-01-27T06:46:44.366Z,84.79
2023-01-27T06:49:11.460Z,84.56
2023-01-27T06:51:38.572Z,84.89
2023-01-27T06:54:05.666Z,85.10
2023-01-27T06:56:32.713Z,85.15
2023-01-27T06:58:59.780Z,85.36
2023-01-27T07:01:27.636Z,85.28
2023-01-27T07:03:54.753Z,85.09
2023-01-27T07:06:21.876Z,84.88
2023-01-27T07:08:50.517Z,85.28
2023-01-27T07:11:17.800Z,85.45
2023-01-27T07:13:44.861Z,86.03
2023-01-27T07:16:11.931Z,86.20
2023-01-27T07:18:39.031Z,86.02
2023-01-27T07:21:06.137Z,86.04
2023-01-27T07:23:33.284Z,85.99
2023-01-27T07:26:09.834Z,86.17
2023-01-27T07:28:42.817Z,85.73
2023-01-27T07:31:10.060Z,86.15
2023-01-27T07:33:37.395Z,85.43
2023-01-27T07:36:04.531Z,85.32
2023-01-27T07:38:31.715Z,85.39
2023-01-27T07:40:58.761Z,84.94
2023-01-27T07:43:26.304Z,85.33
2023-01-27T07:45:56.679Z,84.98
2023-01-27T07:48:23.900Z,84.83
2023-01-27T07:50:51.181Z,84.85
2023-01-27T07:53:18.222Z,84.47
2023-01-27T07:55:45.298Z,84.45
2023-01-27T07:58:12.388Z,84.85
2023-01-27T08:00:39.567Z,84.83
2023-01-27T08:03:06.767Z,84.92
2023-01-27T08:05:34.753Z,84.48
2023-01-27T08:08:03.952Z,84.37
2023-01-27T08:10:31.486Z,84.34
2023-01-27T08:12:58.579Z,84.23
2023-01-27T08:15:25.653Z,84.17
2023-01-27T08:17:56.217Z,84.20
2023-01-27T08:20:25.325Z,84.12
2023-01-27T08:22:52.610Z,84.01
2023-01-27T08:25:19.983Z,83.29
2023-01-27T08:27:50.658Z,83.61
2023-01-27T08:30:18.539Z,83.79
2023-01-27T08:32:45.613Z,83.81
2023-01-27T08:35:12.668Z,83.63
2023-01-27T08:37:39.685Z,83.40
2023-01-27T08:40:07.186Z,83.87
2023-01-27T08:42:34.244Z,83.84
2023-01-27T08:45:01.335Z,83.69
2023-01-27T08:47:28.412Z,83.58
2023-01-27T08:49:55.507Z,83.08
2023-01-27T08:52:23.404Z,83.24
2023-01-27T08:54:50.483Z,83.20
2023-01-27T08:57:17.983Z,83.74
2023-01-27T08:59:46.165Z,83.60
2023-01-27T09:02:13.556Z,83.63
2023-01-27T09:04:43.850Z,83.52
2023-01-27T09:07:11.444Z,84.08
2023-01-27T09:09:38.520Z,83.36
2023-01-27T09:12:05.614Z,83.67
2023-01-27T09:14:32.670Z,83.84
2023-01-27T09:16:59.788Z,84.07
2023-01-27T09:19:26.895Z,83.91
2023-01-27T09:21:54.012Z,84.18
2023-01-27T09:24:21.153Z,84.04
2023-01-27T09:26:48.578Z,84.68
2023-01-27T09:29:15.645Z,84.51
2023-01-27T09:31:42.943Z,84.61
2023-01-27T09:34:10.085Z,84.23
2023-01-27T09:36:41.410Z,84.81
2023-01-27T09:39:09.291Z,84.89
2023-01-27T09:41:57.479Z,85.00
2023-01-27T09:44:46.329Z,84.90
2023-01-27T09:47:40.777Z,85.08
2023-01-27T09:50:24.468Z,84.74
2023-01-27T09:53:23.285Z,84.31
2023-01-27T09:55:59.608Z,84.88
2023-01-27T09:58:56.913Z,84.54
2023-01-27T10:02:14.919Z,84.02
2023-01-27T10:05:02.524Z,83.57
2023-01-27T10:07:35.945Z,84.12
2023-01-27T10:10:12.325Z,83.32
2023-01-27T10:13:00.998Z,83.97
2023-01-27T10:15:46.471Z,83.23
2023-01-27T10:18:28.800Z,83.18
2023-01-27T10:21:06.119Z,83.35
2023-01-27T10:23:51.890Z,83.33
2023-01-27T10:26:24.467Z,83.21
2023-01-27T10:28:57.797Z,83.44
2023-01-27T10:31:34.799Z,83.79
2023-01-27T10:34:13.583Z,83.93
2023-01-27T10:36:47.068Z,83.46
2023-01-27T10:39:24.148Z,83.66
2023-01-27T10:42:02.050Z,83.62
2023-01-27T10:44:37.859Z,83.53
2023-01-27T10:47:23.381Z,84.04
2023-01-27T10:49:57.002Z,84.41
2023-01-27T10:52:36.103Z,84.29
2023-01-27T10:55:13.341Z,84.64
2023-01-27T10:57:45.781Z,84.56
2023-01-27T11:00:46.229Z,85.39
2023-01-27T11:03:17.336Z,85.10
2023-01-27T11:05:49.494Z,85.29
2023-01-27T11:08:19.666Z,84.84
2023-01-27T11:11:07.332Z,84.68
2023-01-27T11:13:34.445Z,85.36
2023-01-27T11:16:03.015Z,84.88
2023-01-27T11:18:32.656Z,85.08
2023-01-27T11:21:03.764Z,85.15
2023-01-27T11:23:34.102Z,85.44
2023-01-27T11:26:26.412Z,85.15
2023-01-27T11:29:00.773Z,85.13
2023-01-27T11:31:51.698Z,85.38
2023-01-27T11:34:25.044Z,85.75
2023-01-27T11:36:52.530Z,85.70
2023-01-27T11:39:20.003Z,85.81
2023-01-27T11:41:57.712Z,86.12
2023-01-27T11:44:28.494Z,85.91
2023-01-27T11:46:56.090Z,86.36
2023-01-27T11:49:28.291Z,86.74
2023-01-27T11:52:33.847Z,86.65
2023-01-27T11:55:15.295Z,86.50
2023-01-27T11:57:44.849Z,85.68
2023-01-27T12:00:20.752Z,86.65
2023-01-27T12:02:55.417Z,86.34
2023-01-27T12:05:30.139Z,86.41
2023-01-27T12:08:05.112Z,86.77
2023-01-27T12:10:35.066Z,87.09
2023-01-27T12:13:09.954Z,87.30
2023-01-27T12:15:38.021Z,87.12
2023-01-27T12:18:15.199Z,87.14
2023-01-27T12:20:45.361Z,86.97
2023-01-27T12:23:24.879Z,87.04
2023-01-27T12:25:57.962Z,87.22
2023-01-27T12:28:42.302Z,87.47
2023-01-27T12:31:18.420Z,86.98
2023-01-27T12:33:56.740Z,86.96
2023-01-27T12:36:24.099Z,87.77
2023-01-27T12:38:51.921Z,87.41
2023-01-27T12:41:27.979Z,87.36
2023-01-27T12:44:00.742Z,86.69
2023-01-27T12:46:29.140Z,87.12
2023-01-27T12:49:10.153Z,86.75
2023-01-27T12:51:48.446Z,86.88
2023-01-27T12:54:21.731Z,87.42
2023-01-27T12:56:50.131Z,87.23
2023-01-27T12:59:19.010Z,87.42
2023-01-27T13:02:01.631Z,86.86
2023-01-27T13:04:29.149Z,86.91
2023-01-27T13:07:07.204Z,87.31
2023-01-27T13:10:16.630Z,87.26
2023-01-27T13:13:02.411Z,87.49
2023-01-27T13:15:31.151Z,87.70
2023-01-27T13:18:13.202Z,87.06
2023-01-27T13:20:46.589Z,87.42
2023-01-27T13:23:21.236Z,87.60
2023-01-27T13:26:00.901Z,87.70
2023-01-27T13:28:53.528Z,87.73
2023-01-27T13:31:53.515Z,87.56
2023-01-27T13:34:49.241Z,86.98
2023-01-27T13:37:19.014Z,86.92
2023-01-27T13:39:54.989Z,86.87
2023-01-27T13:42:51.766Z,87.78
2023-01-27T13:45:22.095Z,87.46
2023-01-27T13:47:58.869Z,87.05
2023-01-27T13:50:31.264Z,87.23
2023-01-27T13:52:59.636Z,87.67
2023-01-27T13:55:51.395Z,87.36
2023-01-27T13:58:30.257Z,87.33
2023-01-27T14:01:18.029Z,86.96
2023-01-27T14:04:06.891Z,86.81
2023-01-27T14:06:52.516Z,87.30
2023-01-27T14:09:44.866Z,86.60
2023-01-27T14:12:34.223Z,86.93
2023-01-27T14:15:27.390Z,86.61
2023-01-27T14:17:56.812Z,86.34
2023-01-27T14:20:38.666Z,86.58
2023-01-27T14:23:44.529Z,86.22
2023-01-27T14:26:37.801Z,86.05
2023-01-27T14:29:38.272Z,86.09
2023-01-27T14:32:11.046Z,86.65
2023-01-27T14:34:53.386Z,86.27
2023-01-27T14:37:28.745Z,86.24
2023-01-27T14:40:17.853Z,86.37
2023-01-27T14:43:03.212Z,86.18
2023-01-27T14:45:36.899Z,85.86
2023-01-27T14:48:29.416Z,85.89
2023-01-27T14:51:07.449Z,85.93
2023-01-27T14:53:51.964Z,85.99
2023-01-27T14:56:22.105Z,85.79
2023-01-27T14:59:23.006Z,86.22
2023-01-27T15:02:03.072Z,86.40
2023-01-27T15:04:45.007Z,86.22
2023-01-27T15:07:38.850Z,86.18
2023-01-27T15:10:27.649Z,85.93
2023-01-27T15:12:57.304Z,85.71
2023-01-27T15:15:36.764Z,85.70
2023-01-27T15:18:22.326Z,85.62
2023-01-27T15:21:02.570Z,86.90
2023-01-27T15:23:38.608Z,86.05
2023-01-27T15:26:07.592Z,86.57
2023-01-27T15:28:38.849Z,85.91
2023-01-27T15:31:15.076Z,85.70
2023-01-27T15:33:48.383Z,86.29
2023-01-27T15:36:29.894Z,86.13
2023-01-27T15:39:09.096Z,86.52
2023-01-27T15:42:16.454Z,85.93
2023-01-27T15:44:59.828Z,86.19
2023-01-27T15:47:29.911Z,86.27
2023-01-27T15:50:19.916Z,86.40
2023-01-27T15:52:49.195Z,85.66
2023-01-27T15:55:34.457Z,86.32
2023-01-27T15:58:10.271Z,86.29
2023-01-27T16:00:39.520Z,86.44
2023-01-27T16:03:22.659Z,86.74
2023-01-27T16:05:52.217Z,86.54
2023-01-27T16:08:20.053Z,85.80
2023-01-27T16:10:47.199Z,86.67
2023-01-27T16:13:30.208Z,86.25
2023-01-27T16:16:18.874Z,86.65
2023-01-27T16:18:49.375Z,86.82
2023-01-27T16:21:49.668Z,86.81
2023-01-27T16:24:25.091Z,86.88
2023-01-27T16:27:08.733Z,86.06
2023-01-27T16:29:42.550Z,86.94
2023-01-27T16:32:21.002Z,86.27
2023-01-27T16:34:55.757Z,86.71
2023-01-27T16:37:28.355Z,87.08
2023-01-27T16:40:15.029Z,87.00
2023-01-27T16:43:03.362Z,87.44
2023-01-27T16:45:40.558Z,87.33
2023-01-27T16:48:27.867Z,87.80
2023-01-27T16:51:06.257Z,87.86
2023-01-27T16:53:33.444Z,87.49
2023-01-27T16:56:03.639Z,87.50
2023-01-27T16:58:45.553Z,88.50
2023-01-27T17:01:27.269Z,88.55
2023-01-27T17:04:00.640Z,87.95
2023-01-27T17:06:30.862Z,88.18
2023-01-27T17:08:58.009Z,88.04
2023-01-27T17:11:29.017Z,88.12
2023-01-27T17:14:03.819Z,88.67
2023-01-27T17:16:42.313Z,88.31
2023-01-27T17:19:24.188Z,88.62
2023-01-27T17:22:04.239Z,88.39
2023-01-27T17:24:33.760Z,87.99
2023-01-27T17:27:01.760Z,88.05
2023-01-27T17:29:35.729Z,88.39
2023-01-27T17:32:04.459Z,88.48
2023-01-27T17:34:32.632Z,88.70
2023-01-27T17:37:31.643Z,88.32
2023-01-27T17:40:01.058Z,88.88
2023-01-27T17:42:32.799Z,88.79
2023-01-27T17:45:27.653Z,88.81
2023-01-27T17:47:58.401Z,88.71
2023-01-27T17:50:30.723Z,88.62
2023-01-27T17:53:00.168Z,88.28
2023-01-27T17:55:29.774Z,89.14
2023-01-27T17:58:05.099Z,88.48
2023-01-27T18:00:35.511Z,88.92
2023-01-27T18:03:05.058Z,88.96
2023-01-27T18:05:32.974Z,89.20
2023-01-27T18:08:00.615Z,88.69
2023-01-27T18:10:38.019Z,89.22
2023-01-27T18:13:20.082Z,88.58
2023-01-27T18:15:49.452Z,89.31
2023-01-27T18:18:19.346Z,88.90
2023-01-27T18:21:11.232Z,89.41
2023-01-27T18:23:48.271Z,89.03
2023-01-27T18:26:25.043Z,88.96
2023-01-27T18:28:57.263Z,88.55
2023-01-27T18:31:26.389Z,88.02
2023-01-27T18:34:00.544Z,88.38
2023-01-27T18:36:35.503Z,87.38
2023-01-27T18:39:04.524Z,87.36
2023-01-27T18:41:38.040Z,87.28
2023-01-27T18:44:05.209Z,87.16
2023-01-27T18:46:32.258Z,87.11
2023-01-27T18:48:59.938Z,87.54
2023-01-27T18:51:27.177Z,86.71
2023-01-27T18:53:54.257Z,86.66
2023-01-27T18:56:21.621Z,87.24
2023-01-27T18:58:48.674Z,87.48
2023-01-27T19:01:21.885Z,87.38
2023-01-27T19:03:50.791Z,87.25
2023-01-27T19:06:18.302Z,87.48
2023-01-27T19:08:45.436Z,87.31
2023-01-27T19:11:15.903Z,87.69
2023-01-27T19:13:46.432Z,87.47
2023-01-27T19:16:15.384Z,87.38
2023-01-27T19:18:43.031Z,87.73
2023-01-27T19:21:15.049Z,87.62
2023-01-27T19:23:44.468Z,88.01
2023-01-27T19:26:16.571Z,87.74
2023-01-27T19:28:44.206Z,87.90
2023-01-27T19:31:11.375Z,87.58
2023-01-27T19:33:38.923Z,87.55
2023-01-27T19:36:15.808Z,88.22
2023-01-27T19:38:42.979Z,88.03
2023-01-27T19:41:10.942Z,88.08
2023-01-27T19:43:38.141Z,87.50
2023-01-27T19:46:16.520Z,88.15
2023-01-27T19:48:44.565Z,87.84
2023-01-27T19:51:11.843Z,87.33
2023-01-27T19:53:38.970Z,87.38
2023-01-27T19:56:29.224Z,87.59
2023-01-27T19:58:56.296Z,87.27
2023-01-27T20:01:24.961Z,87.21
2023-01-27T20:03:52.633Z,87.15
2023-01-27T20:06:25.206Z,87.23
2023-01-27T20:08:56.174Z,87.67
2023-01-27T20:11:43.323Z,87.82
2023-01-27T20:14:15.768Z,87.47
2023-01-27T20:16:43.117Z,87.72
2023-01-27T20:19:14.857Z,87.46
2023-01-27T20:21:43.262Z,87.74
2023-01-27T20:24:18.356Z,88.02
2023-01-27T20:26:45.790Z,87.55
2023-01-27T20:29:13.992Z,87.41
2023-01-27T20:31:41.257Z,87.20
2023-01-27T20:34:08.466Z,87.54
2023-01-27T20:36:35.629Z,88.07
2023-01-27T20:39:04.559Z,87.67
2023-01-27T20:41:31.610Z,87.75
2023-01-27T20:44:01.582Z,86.96
2023-01-27T20:46:29.775Z,87.39
2023-01-27T20:48:58.635Z,87.33
2023-01-27T20:51:25.746Z,86.85
2023-01-27T20:53:53.547Z,86.66
2023-01-27T20:56:22.672Z,87.18
2023-01-27T20:58:50.597Z,86.69
2023-01-27T21:01:22.651Z,87.17
2023-01-27T21:03:50.563Z,86.89
2023-01-27T21:06:19.899Z,86.91
2023-01-27T21:08:50.536Z,86.58
2023-01-27T21:11:19.678Z,86.70
2023-01-27T21:13:47.742Z,86.78
2023-01-27T21:16:15.239Z,87.48
2023-01-27T21:18:42.443Z,86.76
2023-01-27T21:21:21.349Z,87.37
2023-01-27T21:23:48.419Z,86.98
2023-01-27T21:26:15.444Z,87.20
2023-01-27T21:28:42.534Z,87.34
2023-01-27T21:31:12.146Z,87.19
2023-01-27T21:33:39.834Z,87.28
2023-01-27T21:36:10.618Z,87.58
2023-01-27T21:38:38.874Z,88.04
2023-01-27T21:41:07.785Z,87.53
2023-01-27T21:43:54.213Z,87.86
2023-01-27T21:46:21.316Z,87.45
2023-01-27T21:48:48.685Z,87.17
2023-01-27T21:51:15.894Z,87.48
2023-01-27T21:53:42.957Z,87.51
2023-01-27T21:56:10.896Z,87.66
2023-01-27T21:58:38.006Z,87.34
2023-01-27T22:01:09.624Z,88.10
2023-01-27T22:03:37.748Z,87.65
2023-01-27T22:06:08.835Z,87.17
2023-01-27T22:08:36.405Z,87.61
2023-01-27T22:11:11.690Z,87.36
2023-01-27T22:13:39.577Z,87.77
2023-01-27T22:16:07.264Z,87.48
2023-01-27T22:18:34.338Z,87.67
2023-01-27T22:21:02.237Z,87.39
2023-01-27T22:23:29.356Z,87.52
2023-01-27T22:25:56.439Z,87.33
2023-01-27T22:28:24.322Z,87.44
2023-01-27T22:30:51.748Z,87.21
2023-01-27T22:33:19.090Z,87.10
2023-01-27T22:35:46.176Z,87.05
2023-01-27T22:38:13.404Z,86.67
2023-01-27T22:40:40.430Z,86.63
2023-01-27T22:43:10.646Z,87.23
2023-01-27T22:45:38.784Z,87.19
2023-01-27T22:48:06.072Z,86.69
2023-01-27T22:50:33.127Z,87.01
2023-01-27T22:53:00.281Z,86.88
2023-01-27T22:55:27.333Z,86.66
2023-01-27T22:57:54.378Z,86.55
2023-01-27T23:00:21.477Z,87.11
2023-01-27T23:02:48.520Z,87.12
2023-01-27T23:05:16.091Z,86.54
2023-01-27T23:07:43.391Z,86.46
2023-01-27T23:10:10.766Z,87.00
2023-01-27T23:12:37.787Z,86.53
2023-01-27T23:15:05.348Z,86.88
2023-01-27T23:17:32.403Z,86.83
2023-01-27T23:19:59.458Z,86.69
2023-01-27T23:22:26.546Z,86.60
2023-01-27T23:24:53.645Z,86.38
2023-01-27T23:27:20.721Z,86.29
2023-01-27T23:29:47.746Z,86.64
2023-01-27T23:32:14.801Z,86.63
2023-01-27T23:34:41.936Z,87.08
2023-01-27T23:37:08.964Z,86.68
2023-01-27T23:39:36.038Z,86.44
2023-01-27T23:42:03.136Z,87.15
2023-01-27T23:44:30.328Z,86.94
2023-01-27T23:46:57.445Z,87.16
2023-01-27T23:49:24.531Z,87.22
2023-01-27T23:51:51.652Z,86.76
2023-01-27T23:54:18.779Z,86.79
2023-01-27T23:56:45.896Z,86.56
2023-01-27T23:59:13.272Z,86.73
